createdAt,value
2022-10-24T00:01:48.672Z,100375.25
2022-10-24T00:04:17.360Z,100366.34
2022-10-24T00:06:46.014Z,100377.63
2022-10-24T00:09:14.666Z,100380.97
2022-10-24T00:11:44.745Z,100373.75
2022-10-24T00:14:13.438Z,100374.47
2022-10-24T00:16:41.753Z,100370.53
2022-10-24T00:19:10.411Z,100368.56
2022-10-24T00:21:39.310Z,100366.22
2022-10-24T00:24:08.689Z,100370.53
2022-10-24T00:26:37.776Z,100379.44
2022-10-24T00:29:08.002Z,100380.41
2022-10-24T00:31:36.581Z,100389.75
2022-10-24T00:34:05.779Z,100387.38
2022-10-24T00:36:34.558Z,100385.03
2022-10-24T00:39:03.412Z,100373.19
2022-10-24T00:41:35.289Z,100388.50
2022-10-24T00:44:17.184Z,100384.47
2022-10-24T00:46:48.475Z,100377.78
2022-10-24T00:49:19.469Z,100374.28
2022-10-24T00:51:50.459Z,100371.63
2022-10-24T00:54:24.176Z,100366.22
2022-10-24T00:57:00.841Z,100357.09
2022-10-24T00:59:31.458Z,100360.88
2022-10-24T01:02:00.237Z,100349.28
2022-10-24T01:04:28.631Z,100343.56
2022-10-24T01:07:05.319Z,100339.34
2022-10-24T01:09:44.701Z,100339.91
2022-10-24T01:12:21.579Z,100336.38
2022-10-24T01:14:57.587Z,100331.78
2022-10-24T01:17:31.411Z,100336.91
2022-10-24T01:20:31.670Z,100338.59
2022-10-24T01:23:22.297Z,100333.56
2022-10-24T01:26:00.734Z,100335.81
2022-10-24T01:28:32.249Z,100331.84
2022-10-24T01:31:06.876Z,100330.97
2022-10-24T01:33:38.416Z,100331.53
2022-10-24T01:36:09.760Z,100326.22
2022-10-24T01:38:42.643Z,100324.28
2022-10-24T01:41:12.918Z,100328.50
2022-10-24T01:43:43.603Z,100327.69
2022-10-24T01:46:16.658Z,100324.06
2022-10-24T01:48:47.241Z,100327.69
2022-10-24T01:51:16.884Z,100317.13
2022-10-24T01:53:46.239Z,100315.19
2022-10-24T01:56:14.921Z,100310.44
2022-10-24T01:58:43.313Z,100303.22
2022-10-24T02:01:17.106Z,100300.16
2022-10-24T02:03:49.084Z,100290.16
2022-10-24T02:06:20.601Z,100283.75
2022-10-24T02:08:53.051Z,100282.47
2022-10-24T02:11:21.880Z,100262.75
2022-10-24T02:13:53.831Z,100263.44
2022-10-24T02:16:24.032Z,100264.00
2022-10-24T02:18:54.650Z,100261.28
2022-10-24T02:21:30.430Z,100265.16
2022-10-24T02:24:03.135Z,100261.88
2022-10-24T02:26:34.796Z,100264.28
2022-10-24T02:29:07.643Z,100269.56
2022-10-24T02:31:40.971Z,100263.28
2022-10-24T02:36:41.791Z,100271.50
2022-10-24T02:39:11.663Z,100270.41
2022-10-24T02:41:44.009Z,100271.38
2022-10-24T02:44:15.226Z,100273.75
2022-10-24T02:46:46.093Z,100270.13
2022-10-24T02:49:15.194Z,100265.97
2022-10-24T02:51:45.561Z,100270.00
2022-10-24T02:54:14.063Z,100264.03
2022-10-24T02:56:46.561Z,100263.19
2022-10-24T02:59:15.164Z,100261.75
2022-10-24T03:01:45.528Z,100256.91
2022-10-24T03:04:14.027Z,100241.75
2022-10-24T03:06:42.768Z,100249.09
2022-10-24T03:09:11.490Z,100250.50
2022-10-24T03:11:40.244Z,100250.22
2022-10-24T03:14:08.942Z,100253.56
2022-10-24T03:16:37.194Z,100251.31
2022-10-24T03:19:07.362Z,100256.19
2022-10-24T03:21:36.873Z,100254.75
2022-10-24T03:24:05.899Z,100233.09
2022-10-24T03:26:34.752Z,100228.25
2022-10-24T03:29:03.369Z,100239.50
2022-10-24T03:31:32.799Z,100237.56
2022-10-24T03:34:01.579Z,100234.22
2022-10-24T03:36:31.602Z,100234.91
2022-10-24T03:39:00.342Z,100234.22
2022-10-24T03:41:29.207Z,100226.84
2022-10-24T03:43:58.267Z,100218.38
2022-10-24T03:46:26.547Z,100219.75
2022-10-24T03:48:55.337Z,100215.56
2022-10-24T03:51:24.014Z,100212.66
2022-10-24T03:53:54.123Z,100210.22
2022-10-24T03:56:22.892Z,100210.88
2022-10-24T03:58:51.295Z,100212.53
2022-10-24T04:01:20.067Z,100206.69
2022-10-24T04:03:48.967Z,100214.34
2022-10-24T04:06:17.634Z,100208.53
2022-10-24T04:08:46.335Z,100210.34
2022-10-24T04:11:16.392Z,100214.53
2022-10-24T04:13:44.734Z,100219.75
2022-10-24T04:16:13.318Z,100206.59
2022-10-24T04:18:42.042Z,100201.97
2022-10-24T04:21:10.736Z,100201.41
2022-10-24T04:23:41.311Z,100191.84
2022-10-24T04:26:10.393Z,100193.22
2022-10-24T04:28:42.289Z,100181.66
2022-10-24T04:31:11.202Z,100177.91
2022-10-24T04:33:40.057Z,100171.28
2022-10-24T04:36:09.237Z,100167.75
2022-10-24T04:38:37.951Z,100160.66
2022-10-24T04:41:09.797Z,100155.88
2022-10-24T04:43:41.867Z,100152.69
2022-10-24T04:46:10.508Z,100141.28
2022-10-24T04:48:39.214Z,100138.19
2022-10-24T04:51:08.429Z,100130.16
2022-10-24T04:53:37.117Z,100130.47
2022-10-24T04:56:06.515Z,100125.78
2022-10-24T04:58:34.838Z,100125.34
2022-10-24T05:01:05.508Z,100130.50
2022-10-24T05:03:35.539Z,100139.69
2022-10-24T05:06:04.206Z,100131.00
2022-10-24T05:08:33.954Z,100131.38
2022-10-24T05:11:02.653Z,100125.66
2022-10-24T05:13:34.317Z,100126.38
2022-10-24T05:16:07.103Z,100121.03
2022-10-24T05:18:35.538Z,100113.88
2022-10-24T05:21:04.545Z,100113.75
2022-10-24T05:23:33.439Z,100110.81
2022-10-24T05:26:01.958Z,100107.03
2022-10-24T05:28:30.731Z,100114.00
2022-10-24T05:30:59.402Z,100114.78
2022-10-24T05:33:29.734Z,100130.72
2022-10-24T05:35:58.484Z,100129.72
2022-10-24T05:38:27.341Z,100134.75
2022-10-24T05:40:55.680Z,100131.13
2022-10-24T05:43:24.322Z,100137.13
2022-10-24T05:45:53.007Z,100142.94
2022-10-24T05:48:21.709Z,100133.84
2022-10-24T05:50:51.682Z,100138.09
2022-10-24T05:53:20.292Z,100145.63
2022-10-24T05:55:48.606Z,100128.72
2022-10-24T05:58:21.078Z,100135.56
2022-10-24T06:00:53.727Z,100131.72
2022-10-24T06:03:22.964Z,100131.97
2022-10-24T06:06:19.251Z,100139.69
2022-10-24T06:08:48.453Z,100149.19
2022-10-24T06:11:17.340Z,100157.06
2022-10-24T06:13:45.644Z,100156.41
2022-10-24T06:16:14.340Z,100142.94
2022-10-24T06:18:42.957Z,100125.16
2022-10-24T06:21:13.619Z,100142.03
2022-10-24T06:23:42.238Z,100138.56
2022-10-24T06:26:11.738Z,100134.47
2022-10-24T06:28:40.697Z,100123.75
2022-10-24T06:31:11.132Z,100118.59
2022-10-24T06:33:40.124Z,100118.25
2022-10-24T06:36:10.452Z,100114.91
2022-10-24T06:38:40.629Z,100112.41
2022-10-24T06:41:10.313Z,100105.44
2022-10-24T06:43:39.327Z,100112.19
2022-10-24T06:46:08.336Z,100119.25
2022-10-24T06:48:37.653Z,100136.44
2022-10-24T06:51:06.507Z,100158.25
2022-10-24T06:53:35.278Z,100159.38
2022-10-24T06:56:06.616Z,100167.47
2022-10-24T06:58:35.567Z,100168.16
2022-10-24T07:01:09.223Z,100175.44
2022-10-24T07:03:37.970Z,100178.50
2022-10-24T07:06:10.725Z,100176.69
2022-10-24T07:08:39.481Z,100169.50
2022-10-24T07:11:09.558Z,100177.38
2022-10-24T07:13:37.952Z,100177.00
2022-10-24T07:16:07.336Z,100176.25
2022-10-24T07:18:36.070Z,100190.72
2022-10-24T07:21:05.620Z,100189.19
2022-10-24T07:23:35.113Z,100186.47
2022-10-24T07:26:04.668Z,100187.31
2022-10-24T07:28:34.976Z,100182.63
2022-10-24T07:31:03.926Z,100177.63
2022-10-24T07:33:33.002Z,100174.31
2022-10-24T07:36:01.670Z,100162.41
2022-10-24T07:38:30.543Z,100151.00
2022-10-24T07:41:00.773Z,100157.66
2022-10-24T07:43:29.014Z,100161.81
2022-10-24T07:45:58.995Z,100147.34
2022-10-24T07:48:27.753Z,100154.28
2022-10-24T07:50:56.317Z,100156.63
2022-10-24T07:53:26.155Z,100147.16
2022-10-24T07:55:55.220Z,100148.25
2022-10-24T07:58:23.916Z,100163.97
2022-10-24T08:00:52.525Z,100145.53
2022-10-24T08:03:22.601Z,100143.13
2022-10-24T08:05:57.185Z,100137.78
2022-10-24T08:08:36.224Z,100145.84
2022-10-24T08:11:09.319Z,100139.50
2022-10-24T08:13:38.707Z,100127.56
2022-10-24T08:16:08.653Z,100133.22
2022-10-24T08:18:39.955Z,100133.81
2022-10-24T08:21:10.633Z,100125.69
2022-10-24T08:23:41.052Z,100124.75
2022-10-24T08:26:09.583Z,100121.63
2022-10-24T08:28:37.816Z,100114.41
2022-10-24T08:31:08.478Z,100123.06
2022-10-24T08:33:38.698Z,100132.16
2022-10-24T08:36:15.714Z,100124.53
2022-10-24T08:38:44.446Z,100125.25
2022-10-24T08:41:17.606Z,100124.16
2022-10-24T08:43:45.863Z,100131.75
2022-10-24T08:46:33.271Z,100128.16
2022-10-24T08:49:06.951Z,100131.34
2022-10-24T08:51:41.534Z,100135.63
2022-10-24T08:54:12.737Z,100136.28
2022-10-24T08:56:42.122Z,100129.84
2022-10-24T08:59:12.427Z,100127.69
2022-10-24T09:01:45.359Z,100126.53
2022-10-24T09:04:17.879Z,100123.72
2022-10-24T09:06:47.466Z,100119.94
2022-10-24T09:09:21.318Z,100122.88
2022-10-24T09:11:52.964Z,100121.75
2022-10-24T09:14:23.316Z,100121.53
2022-10-24T09:16:54.377Z,100107.69
2022-10-24T09:19:26.259Z,100098.94
2022-10-24T09:21:56.013Z,100099.47
2022-10-24T09:24:39.281Z,100094.38
2022-10-24T09:27:12.792Z,100091.53
2022-10-24T09:29:41.476Z,100101.28
2022-10-24T09:32:16.734Z,100098.97
2022-10-24T09:34:46.977Z,100095.13
2022-10-24T09:37:44.031Z,100094.47
2022-10-24T09:40:19.955Z,100097.78
2022-10-24T09:42:52.297Z,100099.63
2022-10-24T09:45:31.187Z,100104.88
2022-10-24T09:48:02.939Z,100102.00
2022-10-24T09:50:34.607Z,100108.91
2022-10-24T09:53:04.396Z,100100.94
2022-10-24T09:55:34.431Z,100108.78
2022-10-24T09:58:05.475Z,100095.97
2022-10-24T10:00:36.331Z,100090.69
2022-10-24T10:03:07.342Z,100088.28
2022-10-24T10:05:48.500Z,100091.69
2022-10-24T10:08:20.892Z,100092.03
2022-10-24T10:11:00.865Z,100092.91
2022-10-24T10:13:29.729Z,100099.94
2022-10-24T10:16:00.801Z,100087.28
2022-10-24T10:18:35.495Z,100089.41
2022-10-24T10:21:09.450Z,100093.94
2022-10-24T10:23:40.009Z,100086.41
2022-10-24T10:26:20.446Z,100082.19
2022-10-24T10:29:00.623Z,100088.13
2022-10-24T10:31:35.888Z,100080.59
2022-10-24T10:34:16.103Z,100072.66
2022-10-24T10:37:04.157Z,100079.34
2022-10-24T10:39:46.971Z,100065.81
2022-10-24T10:42:19.070Z,100054.41
2022-10-24T10:44:59.384Z,100058.97
2022-10-24T10:47:35.330Z,100067.03
2022-10-24T10:50:04.947Z,100068.47
2022-10-24T10:52:41.800Z,100079.31
2022-10-24T10:55:27.283Z,100080.25
2022-10-24T10:58:02.188Z,100077.84
2022-10-24T11:00:37.677Z,100066.31
2022-10-24T11:03:18.612Z,100070.56
2022-10-24T11:05:55.335Z,100078.56
2022-10-24T11:08:39.973Z,100078.47
2022-10-24T11:11:12.572Z,100076.56
2022-10-24T11:13:44.837Z,100069.34
2022-10-24T11:16:15.922Z,100074.91
2022-10-24T11:18:47.953Z,100070.88
2022-10-24T11:21:17.971Z,100066.59
2022-10-24T11:23:51.700Z,100077.78
2022-10-24T11:26:24.193Z,100081.22
2022-10-24T11:28:57.555Z,100083.97
2022-10-24T11:31:29.507Z,100075.59
2022-10-24T11:34:01.934Z,100091.16
2022-10-24T11:36:33.924Z,100087.00
2022-10-24T11:39:08.341Z,100075.97
2022-10-24T11:41:46.494Z,100069.03
2022-10-24T11:44:30.757Z,100066.97
2022-10-24T11:47:08.863Z,100066.59
2022-10-24T11:49:40.610Z,100053.16
2022-10-24T11:52:15.933Z,100050.88
2022-10-24T11:54:51.098Z,100045.31
2022-10-24T11:57:23.673Z,100049.03
2022-10-24T11:59:54.273Z,100038.50
2022-10-24T12:03:12.966Z,100036.63
2022-10-24T12:05:53.183Z,100039.75
2022-10-24T12:08:36.284Z,100034.69
2022-10-24T12:11:33.307Z,100029.31
2022-10-24T12:14:40.429Z,100020.91
2022-10-24T12:17:20.234Z,100012.78
2022-10-24T12:19:51.312Z,100006.50
2022-10-24T12:22:23.870Z,100002.25
2022-10-24T12:25:05.033Z,100006.13
2022-10-24T12:27:39.576Z,100002.63
2022-10-24T12:30:17.606Z,100004.91
2022-10-24T12:32:47.789Z,99999.22
2022-10-24T12:35:53.050Z,100004.25
2022-10-24T12:39:09.268Z,99998.00
2022-10-24T12:41:45.584Z,100002.13
2022-10-24T12:44:46.015Z,100004.94
2022-10-24T12:47:32.767Z,100009.84
2022-10-24T12:50:54.917Z,99994.28
2022-10-24T12:53:38.350Z,99995.63
2022-10-24T12:56:15.798Z,99985.47
2022-10-24T12:58:47.069Z,99979.31
2022-10-24T13:01:29.791Z,99981.38
2022-10-24T13:04:30.632Z,99971.50
2022-10-24T13:07:40.644Z,99976.03
2022-10-24T13:10:20.165Z,99977.50
2022-10-24T13:12:59.179Z,99979.69
2022-10-24T13:15:40.064Z,99980.47
2022-10-24T13:18:25.091Z,99983.19
2022-10-24T13:21:15.358Z,99981.63
2022-10-24T13:23:45.320Z,99976.13
2022-10-24T13:26:37.938Z,99986.94
2022-10-24T13:29:06.888Z,99975.97
2022-10-24T13:31:44.067Z,99975.03
2022-10-24T13:34:25.278Z,99982.44
2022-10-24T13:37:01.928Z,99984.41
2022-10-24T13:39:37.456Z,99989.47
2022-10-24T13:42:13.077Z,99990.91
2022-10-24T13:44:47.400Z,99990.94
2022-10-24T13:47:19.911Z,99986.00
2022-10-24T13:49:59.699Z,99991.13
2022-10-24T13:52:36.535Z,99985.31
2022-10-24T13:55:18.479Z,99987.81
2022-10-24T13:57:56.521Z,99980.38
2022-10-24T14:00:27.068Z,99978.06
2022-10-24T14:02:56.844Z,99978.72
2022-10-24T14:05:32.002Z,99981.63
2022-10-24T14:08:01.375Z,99969.63
2022-10-24T14:10:30.561Z,99984.06
2022-10-24T14:13:00.512Z,99971.50
2022-10-24T14:15:31.904Z,99971.59
2022-10-24T14:18:03.118Z,99977.03
2022-10-24T14:20:36.745Z,99973.56
2022-10-24T14:23:17.399Z,99979.09
2022-10-24T14:25:46.479Z,99974.59
2022-10-24T14:28:20.423Z,99976.66
2022-10-24T14:30:55.132Z,99980.75
2022-10-24T14:33:25.817Z,99990.63
2022-10-24T14:35:58.189Z,99998.50
2022-10-24T14:38:27.653Z,99997.00
2022-10-24T14:41:08.296Z,100002.69
2022-10-24T14:43:40.139Z,99998.81
2022-10-24T14:46:28.128Z,100003.22
2022-10-24T14:48:56.881Z,100010.41
2022-10-24T14:51:31.144Z,100009.03
2022-10-24T14:54:02.681Z,100005.22
2022-10-24T14:56:33.993Z,100004.38
2022-10-24T14:59:06.277Z,100005.94
2022-10-24T15:01:34.628Z,100011.03
2022-10-24T15:04:05.658Z,100018.16
2022-10-24T15:06:41.041Z,100011.50
2022-10-24T15:09:18.219Z,100007.94
2022-10-24T15:11:48.408Z,99997.44
2022-10-24T15:14:39.156Z,99998.41
2022-10-24T15:17:22.473Z,100004.25
2022-10-24T15:19:51.853Z,100001.94
2022-10-24T15:22:27.209Z,100006.22
2022-10-24T15:24:57.632Z,100013.97
2022-10-24T15:27:28.745Z,100009.38
2022-10-24T15:29:57.889Z,100012.78
2022-10-24T15:32:26.636Z,100013.81
2022-10-24T15:34:56.002Z,100011.72
2022-10-24T15:37:28.666Z,100017.44
2022-10-24T15:39:57.589Z,100019.25
2022-10-24T15:42:26.572Z,100025.81
2022-10-24T15:44:55.535Z,100020.00
2022-10-24T15:47:24.618Z,100023.88
2022-10-24T15:49:52.961Z,100025.25
2022-10-24T15:52:21.787Z,100028.13
2022-10-24T15:54:51.904Z,100026.09
2022-10-24T15:57:21.153Z,100025.63
2022-10-24T15:59:49.961Z,100025.56
2022-10-24T16:02:24.023Z,100028.03
2022-10-24T16:04:52.566Z,100027.94
2022-10-24T16:07:21.341Z,100027.28
2022-10-24T16:09:51.544Z,100025.81
2022-10-24T16:12:20.280Z,100018.75
2022-10-24T16:14:49.253Z,100013.22
2022-10-24T16:17:17.814Z,100016.97
2022-10-24T16:19:46.542Z,100022.22
2022-10-24T16:22:15.586Z,100017.34
2022-10-24T16:24:44.330Z,100021.03
2022-10-24T16:27:14.471Z,100018.72
2022-10-24T16:29:45.940Z,100021.09
2022-10-24T16:32:14.761Z,100028.19
2022-10-24T16:34:44.743Z,100031.41
2022-10-24T16:37:13.393Z,100033.03
2022-10-24T16:39:42.664Z,100030.75
2022-10-24T16:42:11.316Z,100024.56
2022-10-24T16:44:41.520Z,100032.56
2022-10-24T16:47:10.299Z,100031.47
2022-10-24T16:49:38.730Z,100029.00
2022-10-24T16:52:07.482Z,100033.47
2022-10-24T16:54:36.317Z,100028.78
2022-10-24T16:57:05.202Z,100036.03
2022-10-24T16:59:33.937Z,100039.38
2022-10-24T17:02:04.085Z,100040.19
2022-10-24T17:04:33.866Z,100042.94
2022-10-24T17:07:04.445Z,100040.09
2022-10-24T17:09:33.349Z,100044.47
2022-10-24T17:12:02.014Z,100051.16
2022-10-24T17:14:31.148Z,100052.66
2022-10-24T17:17:00.001Z,100054.38
2022-10-24T17:19:30.745Z,100060.88
2022-10-24T17:21:59.800Z,100053.25
2022-10-24T17:24:28.840Z,100041.28
2022-10-24T17:26:58.111Z,100049.63
2022-10-24T17:29:29.094Z,100053.28
2022-10-24T17:31:57.756Z,100050.31
2022-10-24T17:34:27.514Z,100046.53
2022-10-24T17:37:02.786Z,100046.88
2022-10-24T17:39:33.817Z,100039.22
2022-10-24T17:42:02.830Z,100041.69
2022-10-24T17:44:31.890Z,100049.00
2022-10-24T17:47:00.874Z,100038.94
2022-10-24T17:49:29.172Z,100048.28
2022-10-24T17:51:59.354Z,100039.94
2022-10-24T17:54:28.177Z,100035.06
2022-10-24T17:56:56.790Z,100029.59
2022-10-24T17:59:25.882Z,100037.56
2022-10-24T18:01:54.409Z,100041.25
2022-10-24T18:04:26.416Z,100046.41
2022-10-24T18:07:05.755Z,100048.91
2022-10-24T18:09:40.286Z,100041.94
2022-10-24T18:12:16.011Z,100040.72
2022-10-24T18:14:50.131Z,100045.88
2022-10-24T18:17:40.703Z,100041.25
2022-10-24T18:20:16.406Z,100050.22
2022-10-24T18:22:46.798Z,100048.72
2022-10-24T18:25:20.227Z,100045.25
2022-10-24T18:27:51.930Z,100037.41
2022-10-24T18:30:21.020Z,100040.25
2022-10-24T18:32:50.487Z,100050.09
2022-10-24T18:35:21.941Z,100040.28
2022-10-24T18:40:22.600Z,100040.28
2022-10-24T18:42:53.594Z,100035.66
2022-10-24T18:45:24.054Z,100033.00
2022-10-24T18:47:54.389Z,100035.22
2022-10-24T18:50:24.945Z,100038.41
2022-10-24T18:52:57.577Z,100030.75
2022-10-24T18:55:28.109Z,100031.81
2022-10-24T18:57:57.084Z,100032.84
2022-10-24T19:00:27.110Z,100020.56
2022-10-24T19:03:03.159Z,100023.22
2022-10-24T19:05:41.469Z,100023.22
2022-10-24T19:08:14.973Z,100011.44
2022-10-24T19:10:43.937Z,100017.28
2022-10-24T19:13:13.428Z,100025.19
2022-10-24T19:15:44.580Z,100013.78
2022-10-24T19:18:15.716Z,100008.50
2022-10-24T19:20:44.710Z,100007.97
2022-10-24T19:23:17.491Z,100010.47
2022-10-24T19:25:46.043Z,100006.28
2022-10-24T19:28:18.126Z,100005.22
2022-10-24T19:30:47.392Z,100007.03
2022-10-24T19:33:16.644Z,100002.06
2022-10-24T19:35:47.335Z,100005.03
2022-10-24T19:38:18.428Z,100005.69
2022-10-24T19:40:48.029Z,100000.47
2022-10-24T19:43:16.752Z,100000.66
2022-10-24T19:45:50.227Z,100000.22
2022-10-24T19:48:19.789Z,99997.53
2022-10-24T19:50:48.481Z,100000.41
2022-10-24T19:53:18.589Z,99992.22
2022-10-24T19:55:46.867Z,99994.50
2022-10-24T19:58:18.898Z,99996.66
2022-10-24T20:00:48.017Z,99999.78
2022-10-24T20:03:17.362Z,99998.09
2022-10-24T20:05:46.871Z,99984.78
2022-10-24T20:08:19.696Z,99992.88
2022-10-24T20:10:52.675Z,99999.34
2022-10-24T20:13:21.534Z,99994.03
2022-10-24T20:15:54.406Z,99995.19
2022-10-24T20:18:23.482Z,99995.19
2022-10-24T20:20:52.720Z,99993.66
2022-10-24T20:23:23.951Z,100004.66
2022-10-24T20:25:58.939Z,99997.94
2022-10-24T20:28:27.903Z,99992.09
2022-10-24T20:30:56.872Z,99995.41
2022-10-24T20:33:25.536Z,99999.38
2022-10-24T20:35:54.159Z,100000.13
2022-10-24T20:38:24.208Z,100003.84
2022-10-24T20:40:52.638Z,100009.53
2022-10-24T20:43:21.469Z,100006.53
2022-10-24T20:45:50.218Z,99995.81
2022-10-24T20:48:18.921Z,100001.38
2022-10-24T20:50:47.563Z,100000.38
2022-10-24T20:53:16.652Z,100000.09
2022-10-24T20:55:46.397Z,100008.47
2022-10-24T20:58:15.077Z,99989.19
2022-10-24T21:00:43.847Z,100001.97
2022-10-24T21:03:14.393Z,100001.06
2022-10-24T21:05:43.189Z,99997.56
2022-10-24T21:08:11.989Z,100001.72
2022-10-24T21:10:40.423Z,99998.88
2022-10-24T21:13:10.482Z,100003.69
2022-10-24T21:15:39.098Z,100012.03
2022-10-24T21:18:07.747Z,100009.28
2022-10-24T21:20:37.284Z,100008.25
2022-10-24T21:23:05.863Z,100014.38
2022-10-24T21:25:34.122Z,100012.44
2022-10-24T21:28:02.781Z,100012.53
2022-10-24T21:30:32.782Z,100007.59
2022-10-24T21:33:01.603Z,100017.44
2022-10-24T21:35:30.221Z,100021.03
2022-10-24T21:37:58.904Z,100018.91
2022-10-24T21:40:27.207Z,100017.19
2022-10-24T21:42:55.849Z,100015.91
2022-10-24T21:45:24.495Z,100016.81
2022-10-24T21:47:54.486Z,100019.34
2022-10-24T21:50:23.128Z,100019.19
2022-10-24T21:52:51.400Z,100016.16
2022-10-24T21:55:20.074Z,100016.41
2022-10-24T21:57:48.710Z,100010.88
2022-10-24T22:00:17.658Z,100018.97
2022-10-24T22:02:46.719Z,100016.09
2022-10-24T22:05:19.226Z,100018.88
2022-10-24T22:07:49.812Z,100022.91
2022-10-24T22:10:20.162Z,100029.09
2022-10-24T22:12:48.741Z,100021.66
2022-10-24T22:15:17.592Z,100028.66
2022-10-24T22:17:46.502Z,100030.75
2022-10-24T22:20:16.868Z,100037.53
2022-10-24T22:22:45.082Z,100036.06
2022-10-24T22:25:13.773Z,100031.47
2022-10-24T22:27:42.368Z,100036.13
2022-10-24T22:30:11.654Z,100051.28
2022-10-24T22:32:40.547Z,100046.25
2022-10-24T22:35:11.246Z,100047.09
2022-10-24T22:37:41.657Z,100043.31
2022-10-24T22:40:18.330Z,100043.78
2022-10-24T22:42:47.665Z,100047.81
2022-10-24T22:45:17.853Z,100055.34
2022-10-24T22:48:11.257Z,100048.84
2022-10-24T22:50:49.199Z,100050.22
2022-10-24T22:53:21.378Z,100057.75
2022-10-24T22:56:04.515Z,100054.06
2022-10-24T22:58:33.862Z,100050.13
2022-10-24T23:01:06.839Z,100054.31
2022-10-24T23:03:42.155Z,100045.63
2022-10-24T23:06:14.906Z,100059.09
2022-10-24T23:08:45.835Z,100056.81
2022-10-24T23:11:15.426Z,100061.16
2022-10-24T23:13:44.327Z,100061.69
2022-10-24T23:16:21.341Z,100059.22
2022-10-24T23:18:50.495Z,100058.72
2022-10-24T23:21:23.908Z,100060.09
2022-10-24T23:23:54.646Z,100069.31
2022-10-24T23:26:30.737Z,100058.66
2022-10-24T23:29:02.141Z,100068.66
2022-10-24T23:31:31.258Z,100067.22
2022-10-24T23:34:00.437Z,100074.09
2022-10-24T23:36:30.195Z,100069.59
2022-10-24T23:39:01.021Z,100071.41
2022-10-24T23:41:30.042Z,100062.13
2022-10-24T23:43:59.268Z,100064.88
2022-10-24T23:46:32.156Z,100056.31
2022-10-24T23:49:09.957Z,100059.16
2022-10-24T23:51:42.500Z,100056.03
2022-10-24T23:54:14.053Z,100058.69
2022-10-24T23:56:43.102Z,100058.59
2022-10-24T23:59:11.726Z,100062.06
